sensor_id;sensor_type;location;lat;lon;timestamp;temperature;humidity
19646;DHT22;9971;52.446;13.452;2023-02-11T00:00:40;13.40;82.00
19646;DHT22;9971;52.446;13.452;2023-02-11T00:05:42;13.40;81.80
19646;DHT22;9971;52.446;13.452;2023-02-11T00:10:44;13.40;81.00
19646;DHT22;9971;52.446;13.452;2023-02-11T00:15:47;13.50;79.90
19646;DHT22;9971;52.446;13.452;2023-02-11T00:20:50;13.40;81.30
19646;DHT22;9971;52.446;13.452;2023-02-11T00:25:52;13.40;80.60
19646;DHT22;9971;52.446;13.452;2023-02-11T00:30:55;13.40;82.40
19646;DHT22;9971;52.446;13.452;2023-02-11T00:35:57;13.50;81.90
19646;DHT22;9971;52.446;13.452;2023-02-11T00:41:00;13.40;81.50
19646;DHT22;9971;52.446;13.452;2023-02-11T00:46:02;13.40;81.70
19646;DHT22;9971;52.446;13.452;2023-02-11T00:51:04;13.40;81.30
19646;DHT22;9971;52.446;13.452;2023-02-11T00:56:06;13.30;82.40
19646;DHT22;9971;52.446;13.452;2023-02-11T01:01:09;13.30;81.60
19646;DHT22;9971;52.446;13.452;2023-02-11T01:06:11;13.30;81.30
19646;DHT22;9971;52.446;13.452;2023-02-11T01:11:15;13.30;82.30
19646;DHT22;9971;52.446;13.452;2023-02-11T01:16:16;13.30;82.30
19646;DHT22;9971;52.446;13.452;2023-02-11T01:21:18;13.30;82.20
19646;DHT22;9971;52.446;13.452;2023-02-11T01:26:20;13.20;83.20
19646;DHT22;9971;52.446;13.452;2023-02-11T01:31:23;13.20;83.60
19646;DHT22;9971;52.446;13.452;2023-02-11T01:36:25;13.20;83.00
19646;DHT22;9971;52.446;13.452;2023-02-11T01:41:27;13.20;83.50
19646;DHT22;9971;52.446;13.452;2023-02-11T01:46:33;13.10;84.10
19646;DHT22;9971;52.446;13.452;2023-02-11T01:51:37;13.00;84.80
19646;DHT22;9971;52.446;13.452;2023-02-11T01:56:40;13.10;84.60
19646;DHT22;9971;52.446;13.452;2023-02-11T02:01:47;13.10;84.20
19646;DHT22;9971;52.446;13.452;2023-02-11T02:06:53;13.20;85.60
19646;DHT22;9971;52.446;13.452;2023-02-11T02:11:53;13.30;84.60
19646;DHT22;9971;52.446;13.452;2023-02-11T02:16:55;13.30;84.30
19646;DHT22;9971;52.446;13.452;2023-02-11T02:22:05;13.30;84.60
19646;DHT22;9971;52.446;13.452;2023-02-11T02:27:28;13.30;85.10
19646;DHT22;9971;52.446;13.452;2023-02-11T02:32:35;13.30;85.20
19646;DHT22;9971;52.446;13.452;2023-02-11T02:37:53;13.40;84.90
19646;DHT22;9971;52.446;13.452;2023-02-11T02:42:55;13.40;85.90
19646;DHT22;9971;52.446;13.452;2023-02-11T02:47:57;13.50;85.50
19646;DHT22;9971;52.446;13.452;2023-02-11T02:53:07;13.50;85.10
19646;DHT22;9971;52.446;13.452;2023-02-11T02:58:13;13.50;85.20
19646;DHT22;9971;52.446;13.452;2023-02-11T03:03:22;13.50;85.90
19646;DHT22;9971;52.446;13.452;2023-02-11T03:08:24;13.50;85.60
19646;DHT22;9971;52.446;13.452;2023-02-11T03:13:26;13.60;85.20
19646;DHT22;9971;52.446;13.452;2023-02-11T03:18:27;13.60;85.80
19646;DHT22;9971;52.446;13.452;2023-02-11T03:23:49;13.60;85.10
19646;DHT22;9971;52.446;13.452;2023-02-11T03:28:50;13.60;86.00
19646;DHT22;9971;52.446;13.452;2023-02-11T03:39:00;13.70;86.30
19646;DHT22;9971;52.446;13.452;2023-02-11T03:44:02;13.70;86.50
19646;DHT22;9971;52.446;13.452;2023-02-11T03:49:07;13.70;86.20
19646;DHT22;9971;52.446;13.452;2023-02-11T03:54:09;13.70;87.00
19646;DHT22;9971;52.446;13.452;2023-02-11T03:59:10;13.80;87.20
19646;DHT22;9971;52.446;13.452;2023-02-11T04:04:12;13.80;87.40
19646;DHT22;9971;52.446;13.452;2023-02-11T04:09:15;13.80;86.60
19646;DHT22;9971;52.446;13.452;2023-02-11T04:14:17;13.80;87.40
19646;DHT22;9971;52.446;13.452;2023-02-11T04:19:19;13.90;88.00
19646;DHT22;9971;52.446;13.452;2023-02-11T04:24:21;13.90;87.40
19646;DHT22;9971;52.446;13.452;2023-02-11T04:29:24;14.00;88.40
19646;DHT22;9971;52.446;13.452;2023-02-11T04:34:26;14.00;88.10
19646;DHT22;9971;52.446;13.452;2023-02-11T04:39:29;14.10;88.20
19646;DHT22;9971;52.446;13.452;2023-02-11T04:44:31;14.10;89.50
19646;DHT22;9971;52.446;13.452;2023-02-11T04:49:34;14.10;88.30
19646;DHT22;9971;52.446;13.452;2023-02-11T04:54:36;14.10;89.60
19646;DHT22;9971;52.446;13.452;2023-02-11T04:59:39;14.10;90.20
19646;DHT22;9971;52.446;13.452;2023-02-11T05:29:55;14.00;90.80
19646;DHT22;9971;52.446;13.452;2023-02-11T05:34:58;13.90;92.60
19646;DHT22;9971;52.446;13.452;2023-02-11T05:40:00;14.00;92.70
19646;DHT22;9971;52.446;13.452;2023-02-11T05:45:03;14.00;92.60
19646;DHT22;9971;52.446;13.452;2023-02-11T05:50:06;14.00;92.40
19646;DHT22;9971;52.446;13.452;2023-02-11T05:55:08;14.00;92.60
19646;DHT22;9971;52.446;13.452;2023-02-11T06:00:11;14.00;93.10
19646;DHT22;9971;52.446;13.452;2023-02-11T06:30:13;14.00;92.90
19646;DHT22;9971;52.446;13.452;2023-02-11T06:35:16;13.90;94.50
19646;DHT22;9971;52.446;13.452;2023-02-11T06:40:19;13.80;95.30
19646;DHT22;9971;52.446;13.452;2023-02-11T06:45:21;13.80;95.50
19646;DHT22;9971;52.446;13.452;2023-02-11T06:50:24;13.90;95.90
19646;DHT22;9971;52.446;13.452;2023-02-11T06:55:26;13.80;96.60
19646;DHT22;9971;52.446;13.452;2023-02-11T07:00:29;13.90;96.30
19646;DHT22;9971;52.446;13.452;2023-02-11T07:05:30;13.90;97.50
19646;DHT22;9971;52.446;13.452;2023-02-11T07:10:34;13.90;97.60
19646;DHT22;9971;52.446;13.452;2023-02-11T07:15:36;13.90;97.30
19646;DHT22;9971;52.446;13.452;2023-02-11T07:45:39;13.90;97.50
19646;DHT22;9971;52.446;13.452;2023-02-11T08:15:42;13.60;98.70
19646;DHT22;9971;52.446;13.452;2023-02-11T08:45:45;13.60;99.90
19646;DHT22;9971;52.446;13.452;2023-02-11T08:50:47;13.40;99.90
19646;DHT22;9971;52.446;13.452;2023-02-11T08:55:51;13.50;99.90
19646;DHT22;9971;52.446;13.452;2023-02-11T09:00:52;13.50;99.90
19646;DHT22;9971;52.446;13.452;2023-02-11T09:05:55;13.50;99.90
19646;DHT22;9971;52.446;13.452;2023-02-11T09:10:57;13.50;99.90
19646;DHT22;9971;52.446;13.452;2023-02-11T09:16:00;13.50;99.90
19646;DHT22;9971;52.446;13.452;2023-02-11T09:21:04;13.50;99.90
19646;DHT22;9971;52.446;13.452;2023-02-11T09:26:05;13.60;99.90
19646;DHT22;9971;52.446;13.452;2023-02-11T09:31:08;13.60;99.90
19646;DHT22;9971;52.446;13.452;2023-02-11T09:36:09;13.60;99.90
19646;DHT22;9971;52.446;13.452;2023-02-11T09:46:35;13.60;99.90
19646;DHT22;9971;52.446;13.452;2023-02-11T09:51:39;13.70;99.90
19646;DHT22;9971;52.446;13.452;2023-02-11T09:56:40;13.70;99.90
19646;DHT22;9971;52.446;13.452;2023-02-11T10:01:48;13.70;99.90
19646;DHT22;9971;52.446;13.452;2023-02-11T10:06:50;13.70;99.90
19646;DHT22;9971;52.446;13.452;2023-02-11T10:12:10;13.70;99.90
19646;DHT22;9971;52.446;13.452;2023-02-11T10:17:33;13.70;99.90
19646;DHT22;9971;52.446;13.452;2023-02-11T10:22:35;13.70;99.90
19646;DHT22;9971;52.446;13.452;2023-02-11T10:27:36;13.70;99.90
19646;DHT22;9971;52.446;13.452;2023-02-11T10:32:45;13.70;99.90
19646;DHT22;9971;52.446;13.452;2023-02-11T10:37:45;13.70;99.90
19646;DHT22;9971;52.446;13.452;2023-02-11T10:42:48;13.80;99.90
19646;DHT22;9971;52.446;13.452;2023-02-11T10:47:49;13.80;99.90
19646;DHT22;9971;52.446;13.452;2023-02-11T10:52:52;13.80;99.90
19646;DHT22;9971;52.446;13.452;2023-02-11T10:57:55;13.70;99.90
19646;DHT22;9971;52.446;13.452;2023-02-11T11:02:57;13.70;99.90
19646;DHT22;9971;52.446;13.452;2023-02-11T11:07:59;13.70;99.90
19646;DHT22;9971;52.446;13.452;2023-02-11T11:13:01;13.70;99.90
19646;DHT22;9971;52.446;13.452;2023-02-11T11:18:11;13.70;99.90
19646;DHT22;9971;52.446;13.452;2023-02-11T11:23:17;13.70;99.90
19646;DHT22;9971;52.446;13.452;2023-02-11T11:28:22;13.70;99.90
19646;DHT22;9971;52.446;13.452;2023-02-11T11:33:25;13.70;99.90
19646;DHT22;9971;52.446;13.452;2023-02-11T11:38:27;13.70;99.90
19646;DHT22;9971;52.446;13.452;2023-02-11T11:43:28;13.70;99.90
19646;DHT22;9971;52.446;13.452;2023-02-11T11:48:34;13.70;99.90
19646;DHT22;9971;52.446;13.452;2023-02-11T11:53:52;13.80;99.90
19646;DHT22;9971;52.446;13.452;2023-02-11T11:58:52;13.80;99.90
19646;DHT22;9971;52.446;13.452;2023-02-11T12:04:07;13.80;99.90
19646;DHT22;9971;52.446;13.452;2023-02-11T12:09:14;13.80;99.90
19646;DHT22;9971;52.446;13.452;2023-02-11T12:14:22;13.90;99.90
19646;DHT22;9971;52.446;13.452;2023-02-11T12:19:27;13.90;99.90
19646;DHT22;9971;52.446;13.452;2023-02-11T12:24:31;13.80;99.90
19646;DHT22;9971;52.446;13.452;2023-02-11T12:29:42;13.80;99.90
19646;DHT22;9971;52.446;13.452;2023-02-11T12:34:53;13.70;99.90
19646;DHT22;9971;52.446;13.452;2023-02-11T12:40:10;13.70;99.90
19646;DHT22;9971;52.446;13.452;2023-02-11T12:45:37;13.80;99.90
19646;DHT22;9971;52.446;13.452;2023-02-11T12:50:48;13.80;99.90
19646;DHT22;9971;52.446;13.452;2023-02-11T12:55:47;13.80;99.90
19646;DHT22;9971;52.446;13.452;2023-02-11T13:00:50;13.80;99.90
19646;DHT22;9971;52.446;13.452;2023-02-11T13:05:54;13.80;99.90
19646;DHT22;9971;52.446;13.452;2023-02-11T13:10:58;13.80;99.90
19646;DHT22;9971;52.446;13.452;2023-02-11T13:16:01;13.80;99.90
19646;DHT22;9971;52.446;13.452;2023-02-11T13:21:25;13.80;99.90
19646;DHT22;9971;52.446;13.452;2023-02-11T13:26:29;13.80;99.90
19646;DHT22;9971;52.446;13.452;2023-02-11T13:31:29;13.90;99.90
19646;DHT22;9971;52.446;13.452;2023-02-11T13:36:31;13.90;99.90
19646;DHT22;9971;52.446;13.452;2023-02-11T13:41:35;14.00;99.90
19646;DHT22;9971;52.446;13.452;2023-02-11T13:51:49;14.10;99.90
19646;DHT22;9971;52.446;13.452;2023-02-11T13:57:18;14.20;99.90
19646;DHT22;9971;52.446;13.452;2023-02-11T14:02:22;14.30;99.90
19646;DHT22;9971;52.446;13.452;2023-02-11T14:07:29;14.30;99.90
19646;DHT22;9971;52.446;13.452;2023-02-11T14:12:36;14.30;99.90
19646;DHT22;9971;52.446;13.452;2023-02-11T14:17:38;14.40;99.90
19646;DHT22;9971;52.446;13.452;2023-02-11T14:22:43;14.40;99.90
19646;DHT22;9971;52.446;13.452;2023-02-11T14:27:45;14.50;99.90
19646;DHT22;9971;52.446;13.452;2023-02-11T14:33:05;11.40;99.90
19646;DHT22;9971;52.446;13.452;2023-02-11T14:38:25;10.50;99.90
19646;DHT22;9971;52.446;13.452;2023-02-11T14:43:27;10.10;99.90
19646;DHT22;9971;52.446;13.452;2023-02-11T14:48:29;9.80;99.90
19646;DHT22;9971;52.446;13.452;2023-02-11T14:53:29;9.70;99.90
19646;DHT22;9971;52.446;13.452;2023-02-11T14:58:31;9.70;99.90
19646;DHT22;9971;52.446;13.452;2023-02-11T15:03:36;9.60;99.90
19646;DHT22;9971;52.446;13.452;2023-02-11T15:08:37;9.60;99.90
19646;DHT22;9971;52.446;13.452;2023-02-11T15:13:39;9.60;99.90
19646;DHT22;9971;52.446;13.452;2023-02-11T15:18:41;9.50;99.90
19646;DHT22;9971;52.446;13.452;2023-02-11T15:23:43;9.50;99.90
19646;DHT22;9971;52.446;13.452;2023-02-11T15:28:45;9.50;99.90
19646;DHT22;9971;52.446;13.452;2023-02-11T15:33:47;9.50;99.90
19646;DHT22;9971;52.446;13.452;2023-02-11T15:44:03;9.50;99.90
19646;DHT22;9971;52.446;13.452;2023-02-11T15:49:05;9.50;99.90
19646;DHT22;9971;52.446;13.452;2023-02-11T15:54:14;9.50;99.90
19646;DHT22;9971;52.446;13.452;2023-02-11T15:59:15;9.50;99.90
19646;DHT22;9971;52.446;13.452;2023-02-11T16:04:17;9.50;99.90
19646;DHT22;9971;52.446;13.452;2023-02-11T16:09:34;9.50;99.90
19646;DHT22;9971;52.446;13.452;2023-02-11T16:14:36;9.60;99.90
19646;DHT22;9971;52.446;13.452;2023-02-11T16:19:42;9.50;99.90
19646;DHT22;9971;52.446;13.452;2023-02-11T16:24:45;9.60;99.90
19646;DHT22;9971;52.446;13.452;2023-02-11T16:29:46;9.60;99.90
19646;DHT22;9971;52.446;13.452;2023-02-11T16:34:48;9.60;99.90
19646;DHT22;9971;52.446;13.452;2023-02-11T16:39:53;9.60;99.90
19646;DHT22;9971;52.446;13.452;2023-02-11T16:44:55;9.60;99.90
19646;DHT22;9971;52.446;13.452;2023-02-11T16:49:57;9.60;99.90
19646;DHT22;9971;52.446;13.452;2023-02-11T16:54:59;9.60;99.90
19646;DHT22;9971;52.446;13.452;2023-02-11T17:00:02;9.60;99.90
19646;DHT22;9971;52.446;13.452;2023-02-11T17:05:05;9.60;99.90
19646;DHT22;9971;52.446;13.452;2023-02-11T17:10:12;9.60;99.90
19646;DHT22;9971;52.446;13.452;2023-02-11T17:15:13;9.60;99.90
19646;DHT22;9971;52.446;13.452;2023-02-11T17:20:16;9.60;99.90
19646;DHT22;9971;52.446;13.452;2023-02-11T17:25:18;9.60;99.90
19646;DHT22;9971;52.446;13.452;2023-02-11T17:30:21;9.70;99.90
19646;DHT22;9971;52.446;13.452;2023-02-11T17:35:23;9.70;99.90
19646;DHT22;9971;52.446;13.452;2023-02-11T17:40:25;9.70;99.90
19646;DHT22;9971;52.446;13.452;2023-02-11T17:45:28;9.70;99.90
19646;DHT22;9971;52.446;13.452;2023-02-11T17:50:33;9.70;99.90
19646;DHT22;9971;52.446;13.452;2023-02-11T17:55:33;9.70;99.90
19646;DHT22;9971;52.446;13.452;2023-02-11T18:00:35;9.70;99.90
19646;DHT22;9971;52.446;13.452;2023-02-11T18:05:37;9.60;99.90
19646;DHT22;9971;52.446;13.452;2023-02-11T18:10:40;9.70;99.90
19646;DHT22;9971;52.446;13.452;2023-02-11T18:15:42;9.70;99.90
19646;DHT22;9971;52.446;13.452;2023-02-11T18:20:44;9.70;99.90
19646;DHT22;9971;52.446;13.452;2023-02-11T18:25:46;9.70;99.90
19646;DHT22;9971;52.446;13.452;2023-02-11T18:30:55;9.70;99.90
19646;DHT22;9971;52.446;13.452;2023-02-11T18:35:51;9.70;99.90
19646;DHT22;9971;52.446;13.452;2023-02-11T18:40:55;9.70;99.90
19646;DHT22;9971;52.446;13.452;2023-02-11T18:45:55;9.70;99.90
19646;DHT22;9971;52.446;13.452;2023-02-11T18:50:58;9.70;99.90
19646;DHT22;9971;52.446;13.452;2023-02-11T18:56:00;9.70;99.90
19646;DHT22;9971;52.446;13.452;2023-02-11T19:01:08;9.70;99.90
19646;DHT22;9971;52.446;13.452;2023-02-11T19:06:05;9.80;99.90
19646;DHT22;9971;52.446;13.452;2023-02-11T19:11:07;9.80;99.90
19646;DHT22;9971;52.446;13.452;2023-02-11T19:16:10;9.80;99.90
19646;DHT22;9971;52.446;13.452;2023-02-11T19:21:11;9.80;99.90
19646;DHT22;9971;52.446;13.452;2023-02-11T19:26:14;9.80;99.90
19646;DHT22;9971;52.446;13.452;2023-02-11T19:31:17;9.80;99.90
19646;DHT22;9971;52.446;13.452;2023-02-11T19:36:19;9.80;99.90
19646;DHT22;9971;52.446;13.452;2023-02-11T19:41:21;9.80;99.90
19646;DHT22;9971;52.446;13.452;2023-02-11T19:46:25;9.80;99.90
19646;DHT22;9971;52.446;13.452;2023-02-11T19:51:26;9.80;99.90
19646;DHT22;9971;52.446;13.452;2023-02-11T19:56:28;9.80;99.90
19646;DHT22;9971;52.446;13.452;2023-02-11T20:01:31;9.80;99.90
19646;DHT22;9971;52.446;13.452;2023-02-11T20:06:33;9.70;99.90
19646;DHT22;9971;52.446;13.452;2023-02-11T20:11:35;9.70;99.90
19646;DHT22;9971;52.446;13.452;2023-02-11T20:16:38;9.70;99.90
19646;DHT22;9971;52.446;13.452;2023-02-11T20:21:40;9.70;99.90
19646;DHT22;9971;52.446;13.452;2023-02-11T20:26:42;9.70;99.90
19646;DHT22;9971;52.446;13.452;2023-02-11T20:31:44;9.70;99.90
19646;DHT22;9971;52.446;13.452;2023-02-11T20:36:47;9.70;99.90
19646;DHT22;9971;52.446;13.452;2023-02-11T20:41:49;9.70;99.90
19646;DHT22;9971;52.446;13.452;2023-02-11T20:46:50;9.70;99.90
19646;DHT22;9971;52.446;13.452;2023-02-11T20:51:53;9.70;99.90
19646;DHT22;9971;52.446;13.452;2023-02-11T20:56:54;9.70;99.90
19646;DHT22;9971;52.446;13.452;2023-02-11T21:01:56;9.70;99.90
19646;DHT22;9971;52.446;13.452;2023-02-11T21:06:59;9.70;99.90
19646;DHT22;9971;52.446;13.452;2023-02-11T21:12:01;9.70;99.90
19646;DHT22;9971;52.446;13.452;2023-02-11T21:17:03;9.70;99.90
19646;DHT22;9971;52.446;13.452;2023-02-11T21:22:06;9.70;99.90
19646;DHT22;9971;52.446;13.452;2023-02-11T21:27:08;9.70;99.90
19646;DHT22;9971;52.446;13.452;2023-02-11T21:32:10;9.70;99.90
19646;DHT22;9971;52.446;13.452;2023-02-11T21:37:13;9.70;99.90
19646;DHT22;9971;52.446;13.452;2023-02-11T21:42:15;9.70;99.90
19646;DHT22;9971;52.446;13.452;2023-02-11T21:47:18;9.70;99.90
19646;DHT22;9971;52.446;13.452;2023-02-11T21:52:20;9.70;99.90
19646;DHT22;9971;52.446;13.452;2023-02-11T21:57:23;9.70;99.90
19646;DHT22;9971;52.446;13.452;2023-02-11T22:02:25;9.70;99.90
19646;DHT22;9971;52.446;13.452;2023-02-11T22:07:28;9.70;99.90
19646;DHT22;9971;52.446;13.452;2023-02-11T22:12:30;9.70;99.90
19646;DHT22;9971;52.446;13.452;2023-02-11T22:17:33;9.70;99.90
19646;DHT22;9971;52.446;13.452;2023-02-11T22:22:35;9.70;99.90
19646;DHT22;9971;52.446;13.452;2023-02-11T22:27:37;9.70;99.90
19646;DHT22;9971;52.446;13.452;2023-02-11T22:32:40;9.60;99.90
19646;DHT22;9971;52.446;13.452;2023-02-11T22:37:42;9.70;99.90
19646;DHT22;9971;52.446;13.452;2023-02-11T22:42:44;9.70;99.90
19646;DHT22;9971;52.446;13.452;2023-02-11T22:47:47;9.60;99.90
19646;DHT22;9971;52.446;13.452;2023-02-11T22:52:49;9.70;99.90
19646;DHT22;9971;52.446;13.452;2023-02-11T22:57:52;9.60;99.90
19646;DHT22;9971;52.446;13.452;2023-02-11T23:02:54;9.60;99.90
19646;DHT22;9971;52.446;13.452;2023-02-11T23:07:57;9.60;99.90
19646;DHT22;9971;52.446;13.452;2023-02-11T23:12:59;9.60;99.90
19646;DHT22;9971;52.446;13.452;2023-02-11T23:18:01;9.60;99.90
19646;DHT22;9971;52.446;13.452;2023-02-11T23:23:04;9.50;99.90
19646;DHT22;9971;52.446;13.452;2023-02-11T23:28:06;9.50;99.90
19646;DHT22;9971;52.446;13.452;2023-02-11T23:33:09;9.50;99.90
19646;DHT22;9971;52.446;13.452;2023-02-11T23:38:11;9.50;99.90
19646;DHT22;9971;52.446;13.452;2023-02-11T23:43:14;9.50;99.90
19646;DHT22;9971;52.446;13.452;2023-02-11T23:48:16;9.50;99.90
19646;DHT22;9971;52.446;13.452;2023-02-11T23:53:19;9.50;99.90
19646;DHT22;9971;52.446;13.452;2023-02-11T23:58:21;9.50;99.90
